Time;durP1;ratioP1;P1;durP2;ratioP2;P2;SDS_P1;SDS_P2;PMS_P1;PMS_P2;Temp;Humidity;BMP_temperature;BMP_pressure;BME280_temperature;BME280_humidity;BME280_pressure;Samples;Min_cycle;Max_cycle;Signal;HPM_P1;HPM_P2
2021/11/02 00:02:00;;;;;;;7.57;2.57;;;;;;;9.66;68.17;98767.63;5016454;28;20502;-70
2021/11/02 00:04:27;;;;;;;2.33;1.60;;;;;;;9.68;68.27;98757.59;5017308;28;20497;-71
2021/11/02 00:06:55;;;;;;;6.57;1.47;;;;;;;9.60;68.56;98766.47;5063450;28;20475;-71
2021/11/02 00:09:26;;;;;;;7.20;1.70;;;;;;;9.70;68.15;98761.75;5074244;28;20447;-71
2021/11/02 00:11:53;;;;;;;4.17;1.80;;;;;;;9.55;68.54;98763.50;5079433;28;20476;-71
2021/11/02 00:14:21;;;;;;;3.63;1.37;;;;;;;9.70;68.13;98764.41;5081589;28;20791;-71
2021/11/02 00:16:54;;;;;;;3.83;1.40;;;;;;;9.64;68.28;98769.63;5080045;28;20502;-71
2021/11/02 00:19:22;;;;;;;4.10;1.90;;;;;;;9.60;68.39;98767.28;5080160;28;20498;-71
2021/11/02 00:21:51;;;;;;;7.53;1.97;;;;;;;9.61;68.36;98760.94;5080650;28;20535;-71
2021/11/02 00:24:38;;;;;;;10.70;2.30;;;;;;;9.74;68.29;98763.09;5079962;28;20436;-72
2021/11/02 00:27:05;;;;;;;5.10;1.67;;;;;;;9.63;68.56;98763.44;5081409;28;20475;-70
2021/11/02 00:29:32;;;;;;;4.97;1.90;;;;;;;9.50;68.95;98760.50;5076657;28;20465;-72
2021/11/02 00:31:58;;;;;;;3.70;1.83;;;;;;;9.57;68.75;98758.81;5079885;28;20586;-70
2021/11/02 00:34:25;;;;;;;4.03;2.00;;;;;;;9.57;68.98;98764.13;5081650;28;20890;-70
2021/11/02 00:36:51;;;;;;;5.07;1.60;;;;;;;9.71;68.47;98742.06;5076665;28;20535;-72
2021/11/02 00:39:19;;;;;;;3.80;1.77;;;;;;;9.67;68.63;98758.59;5078101;28;20471;-72
2021/11/02 00:41:46;;;;;;;5.00;2.10;;;;;;;9.57;68.70;98756.97;5079831;28;21071;-70
2021/11/02 00:44:13;;;;;;;3.67;1.90;;;;;;;9.63;68.57;98755.44;5081115;28;20479;-71
2021/11/02 00:46:39;;;;;;;6.37;2.33;;;;;;;9.56;68.90;98757.13;5079167;28;20479;-71
2021/11/02 00:49:07;;;;;;;6.57;2.03;;;;;;;9.56;69.01;98759.78;5081468;28;20459;-71
2021/11/02 00:51:34;;;;;;;6.23;1.90;;;;;;;9.55;69.07;98736.81;5080572;28;20498;-71
2021/11/02 00:54:00;;;;;;;13.43;3.40;;;;;;;9.56;69.15;98747.28;5076740;28;20479;-70
2021/11/02 00:56:28;;;;;;;8.33;1.77;;;;;;;9.59;68.48;98733.59;5084465;28;20483;-70
2021/11/02 00:58:55;;;;;;;10.40;1.93;;;;;;;9.91;67.93;98737.19;5084700;28;20440;-71
2021/11/02 01:01:22;;;;;;;4.37;2.13;;;;;;;9.90;67.70;98745.34;5083798;28;20547;-70
2021/11/02 01:03:48;;;;;;;4.83;1.80;;;;;;;9.85;68.20;98745.03;5084929;28;20548;-71
2021/11/02 01:06:15;;;;;;;5.00;2.23;;;;;;;9.71;68.61;98731.41;5078996;28;20506;-71
2021/11/02 01:08:42;;;;;;;4.23;1.50;;;;;;;9.82;68.10;98740.88;5084654;28;20456;-71
2021/11/02 01:11:08;;;;;;;6.43;1.77;;;;;;;9.82;67.96;98730.19;5084289;28;20560;-71
2021/11/02 01:13:36;;;;;;;5.73;2.13;;;;;;;9.84;68.48;98727.34;5084331;28;20475;-70
2021/11/02 01:16:03;;;;;;;5.80;2.07;;;;;;;9.83;68.64;98723.84;5083071;28;20507;-70
2021/11/02 01:18:30;;;;;;;4.37;1.43;;;;;;;10.01;67.93;98717.44;5085191;28;20459;-71
2021/11/02 01:20:57;;;;;;;4.20;1.70;;;;;;;9.99;67.78;98721.09;5079985;28;20511;-71
2021/11/02 01:23:24;;;;;;;6.83;1.93;;;;;;;9.79;68.49;98719.84;5084626;28;20458;-72
2021/11/02 01:25:50;;;;;;;3.73;1.80;;;;;;;10.07;67.82;98728.25;5083403;28;20495;-70
2021/11/02 01:28:17;;;;;;;5.50;1.80;;;;;;;9.87;67.86;98722.50;5084925;28;20527;-70
2021/11/02 01:30:45;;;;;;;3.20;1.90;;;;;;;9.77;68.70;98720.06;5082985;28;20475;-71
2021/11/02 01:33:12;;;;;;;3.80;2.00;;;;;;;9.80;68.77;98727.69;5084374;28;20480;-70
2021/11/02 01:35:39;;;;;;;5.40;1.83;;;;;;;9.77;68.70;98716.53;5084385;28;20518;-71
2021/11/02 01:38:05;;;;;;;5.43;1.90;;;;;;;9.68;68.75;98723.72;5083934;28;20511;-70
2021/11/02 01:40:32;;;;;;;6.33;1.67;;;;;;;9.74;68.77;98717.72;5082050;28;20488;-70
2021/11/02 01:42:59;;;;;;;4.33;1.80;;;;;;;9.70;68.69;98732.38;5083459;28;20475;-71
2021/11/02 01:45:28;;;;;;;6.40;1.73;;;;;;;9.57;69.22;98732.13;5081614;28;20483;-71
2021/11/02 01:47:57;;;;;;;5.83;2.00;;;;;;;9.37;69.93;98737.84;5077797;28;20440;-71
2021/11/02 01:50:24;;;;;;;5.87;1.73;;;;;;;9.49;69.46;98730.28;5083389;28;20471;-71
2021/11/02 01:52:50;;;;;;;2.73;1.73;;;;;;;9.23;70.30;98742.03;5076324;28;20483;-72
2021/11/02 01:55:18;;;;;;;3.40;2.00;;;;;;;9.39;70.20;98741.19;5083086;28;20444;-71
2021/11/02 01:57:46;;;;;;;4.80;1.70;;;;;;;9.32;69.83;98740.19;5083009;28;20473;-70
2021/11/02 02:00:15;;;;;;;4.20;1.60;;;;;;;9.37;70.13;98737.00;5083224;28;20468;-71
2021/11/02 02:02:47;;;;;;;3.53;2.07;;;;;;;9.42;70.01;98740.00;5083092;28;20474;-72
2021/11/02 02:05:23;;;;;;;5.10;1.80;;;;;;;9.52;69.42;98735.28;5082542;28;20490;-72
2021/11/02 02:08:01;;;;;;;5.00;2.10;;;;;;;9.48;69.53;98727.78;5083441;28;20473;-71
2021/11/02 02:10:33;;;;;;;5.77;2.10;;;;;;;9.41;70.04;98728.50;5081980;28;20486;-71
2021/11/02 02:13:08;;;;;;;2.47;1.90;;;;;;;9.50;70.30;98725.81;5076697;28;20519;-70
2021/11/02 02:15:40;;;;;;;5.73;2.00;;;;;;;9.56;70.67;98723.28;5064235;28;20475;-70
2021/11/02 02:18:11;;;;;;;4.13;2.23;;;;;;;9.46;71.21;98727.13;5083474;28;20456;-70
2021/11/02 02:20:57;;;;;;;5.83;2.20;;;;;;;9.63;70.97;98725.25;5077612;28;20495;-71
2021/11/02 02:23:34;;;;;;;2.17;1.60;;;;;;;9.64;71.07;98726.94;5083458;28;20503;-72
2021/11/02 02:26:06;;;;;;;5.33;2.27;;;;;;;9.47;71.45;98731.47;5082885;28;20543;-72
2021/11/02 02:28:37;;;;;;;4.90;2.03;;;;;;;9.45;71.63;98728.97;5083531;28;20444;-71
2021/11/02 02:31:06;;;;;;;8.47;2.57;;;;;;;9.45;71.66;98717.50;5081656;28;20492;-71
2021/11/02 02:33:36;;;;;;;6.10;2.37;;;;;;;9.47;71.61;98710.97;5080882;28;20535;-71
2021/11/02 02:36:04;;;;;;;7.40;3.07;;;;;;;9.33;72.04;98709.84;5080961;28;20998;-71
2021/11/02 02:38:31;;;;;;;6.17;2.50;;;;;;;9.32;72.08;98696.66;5082469;28;20507;-71
2021/11/02 02:40:58;;;;;;;5.20;2.47;;;;;;;9.10;72.84;98704.41;5082591;28;20552;-71
2021/11/02 02:43:25;;;;;;;5.70;2.63;;;;;;;8.98;73.20;98708.41;5082355;28;20519;-72
2021/11/02 02:45:54;;;;;;;5.50;2.50;;;;;;;8.95;73.27;98709.56;5062371;28;20511;-72
2021/11/02 02:48:22;;;;;;;5.00;2.47;;;;;;;8.91;73.36;98694.09;5072317;28;20467;-71
2021/11/02 02:50:50;;;;;;;5.30;2.53;;;;;;;8.79;74.03;98701.59;5082053;28;20476;-71
2021/11/02 02:53:17;;;;;;;4.90;2.87;;;;;;;8.97;73.37;98694.22;5082606;28;20487;-72
2021/11/02 02:55:45;;;;;;;9.90;3.57;;;;;;;9.15;72.67;98687.88;5082533;28;20487;-70
2021/11/02 02:58:12;;;;;;;3.10;2.57;;;;;;;9.05;72.70;98696.91;5081101;28;20464;-72
2021/11/02 03:00:39;;;;;;;8.20;2.53;;;;;;;9.32;72.42;98688.66;5081105;28;20498;-71
2021/11/02 03:03:07;;;;;;;6.47;2.97;;;;;;;9.38;72.04;98688.00;5075707;28;20527;-72
2021/11/02 03:05:34;;;;;;;8.03;2.90;;;;;;;9.20;72.52;98683.72;5080699;28;21050;-70
2021/11/02 03:08:00;;;;;;;4.57;2.63;;;;;;;9.16;72.42;98692.22;5082257;28;20435;-71
2021/11/02 03:10:27;;;;;;;11.60;3.63;;;;;;;9.10;73.02;98687.56;5081280;28;20531;-71
2021/11/02 03:12:56;;;;;;;8.23;3.23;;;;;;;9.19;72.82;98682.03;5081213;28;20507;-71
2021/11/02 03:15:52;;;;;;;10.83;3.53;;;;;;;9.11;72.99;98681.22;5081093;28;20429;-71
2021/11/02 03:18:37;;;;;;;5.57;4.00;;;;;;;9.34;72.34;98686.66;5082754;28;20440;-71
2021/11/02 03:43:39;;;;;;;3.00;2.10;;;;;;;9.76;70.97;98691.69;5081136;28;20446;-71
2021/11/02 03:48:58;;;;;;;5.87;2.00;;;;;;;9.63;71.14;98702.06;5081623;28;20439;-72
2021/11/02 03:51:48;;;;;;;3.03;1.87;;;;;;;9.88;70.64;98697.47;5081491;28;20487;-72
2021/11/02 03:57:24;;;;;;;2.40;1.80;;;;;;;9.93;70.20;98695.13;5036661;28;20474;-72
2021/11/02 04:27:53;;;;;;;6.47;3.00;;;;;;;9.30;72.48;98712.00;5050909;28;20460;-71
2021/11/02 04:58:24;;;;;;;5.10;3.40;;;;;;;9.25;73.29;98701.84;5080993;28;20459;-70
2021/11/02 05:09:36;;;;;;;6.70;5.00;;;;;;;9.45;73.00;98694.31;5075198;28;20753;-71
2021/11/02 05:12:35;;;;;;;3.77;3.27;;;;;;;9.30;73.27;98701.34;5073329;28;20479;-71
2021/11/02 05:46:39;;;;;;;7.87;3.67;;;;;;;9.61;72.83;98693.41;5079385;28;20486;-71
2021/11/02 05:48:32;;;;;;;6.50;4.17;;;;;;;9.51;73.75;98708.78;5077690;28;20454;-72
2021/11/02 05:51:11;;;;;;;6.27;4.37;;;;;;;9.17;74.93;98704.56;5082555;28;20483;-72
2021/11/02 05:56:31;;;;;;;8.70;4.87;;;;;;;9.53;74.08;98704.09;5064508;28;20483;-73
2021/11/02 05:59:12;;;;;;;12.17;6.73;;;;;;;9.59;73.71;98703.44;5083671;28;20448;-74
2021/11/02 06:01:50;;;;;;;7.43;4.97;;;;;;;9.74;73.64;98712.38;5081755;28;20491;-73
2021/11/02 06:04:40;;;;;;;6.97;5.30;;;;;;;9.89;72.79;98707.13;5073258;28;20490;-73
2021/11/02 06:07:27;;;;;;;7.23;4.33;;;;;;;9.74;73.10;98708.88;5083455;28;20479;-73
2021/11/02 06:10:01;;;;;;;7.80;5.10;;;;;;;9.86;72.98;98711.97;5076287;28;20455;-72
2021/11/02 06:29:05;;;;;;;5.10;3.80;;;;;;;9.64;74.03;98703.75;4989654;28;20444;-80
2021/11/02 06:31:34;;;;;;;6.20;4.90;;;;;;;9.48;74.98;98703.78;4980628;28;20515;-74
2021/11/02 06:34:07;;;;;;;7.93;4.87;;;;;;;9.39;75.29;98708.31;4982369;28;20461;-75
2021/11/02 06:39:43;;;;;;;5.07;4.30;;;;;;;9.51;74.86;98714.13;5002052;28;20455;-75
2021/11/02 06:42:39;;;;;;;9.03;4.70;;;;;;;9.63;74.76;98715.41;4999139;28;20525;-74
2021/11/02 06:45:34;;;;;;;6.73;4.63;;;;;;;9.69;74.66;98719.25;5003599;28;21033;-75
2021/11/02 06:51:25;;;;;;;10.40;5.23;;;;;;;9.49;75.18;98724.13;4998941;28;20559;-74
2021/11/02 06:56:59;;;;;;;7.60;4.40;;;;;;;9.48;75.65;98722.47;4993647;28;20480;-74
2021/11/02 07:19:16;;;;;;;7.33;4.30;;;;;;;9.30;76.24;98739.50;5010420;28;20454;-77
2021/11/02 07:21:54;;;;;;;10.63;6.20;;;;;;;9.48;75.53;98746.47;5018471;28;20775;-72
2021/11/02 07:24:28;;;;;;;8.43;6.50;;;;;;;9.50;75.83;98753.31;5008020;28;20527;-71
2021/11/02 07:27:10;;;;;;;6.53;5.70;;;;;;;9.87;74.68;98746.50;5017441;28;20481;-72
2021/11/02 08:47:32;;;;;;;6.20;4.10;;;;;;;15.96;50.32;98748.41;5036878;28;20550;-73
2021/11/02 08:50:00;;;;;;;5.57;5.00;;;;;;;16.90;48.72;98756.88;5038035;28;20427;-73
2021/11/02 08:52:27;;;;;;;5.20;4.30;;;;;;;16.94;47.60;98744.56;5035624;28;20540;-73
2021/11/02 08:54:56;;;;;;;6.77;4.50;;;;;;;14.55;54.29;98739.50;5037509;28;20623;-73
2021/11/02 08:57:23;;;;;;;7.77;4.47;;;;;;;16.83;48.90;98740.69;5036820;28;20496;-73
2021/11/02 08:59:51;;;;;;;8.37;4.30;;;;;;;14.26;54.13;98746.84;5036762;28;20537;-73
2021/11/02 09:02:25;;;;;;;7.50;4.70;;;;;;;14.20;55.27;98744.13;5035901;28;20500;-72
2021/11/02 09:04:54;;;;;;;4.30;3.33;;;;;;;14.37;55.02;98747.28;5038112;28;20504;-73
2021/11/02 09:07:24;;;;;;;8.17;3.73;;;;;;;14.03;56.27;98751.72;5036533;28;20860;-73
2021/11/02 09:09:51;;;;;;;6.57;3.10;;;;;;;13.63;56.96;98752.34;5038206;28;20449;-73
2021/11/02 09:12:19;;;;;;;4.30;3.77;;;;;;;15.48;53.14;98751.38;5036894;28;20508;-73
2021/11/02 09:14:48;;;;;;;7.23;4.07;;;;;;;16.60;48.78;98741.25;5079951;28;20447;-73
2021/11/02 09:17:16;;;;;;;6.83;4.07;;;;;;;15.51;50.93;98748.25;5082687;28;20522;-73
2021/11/02 09:19:42;;;;;;;5.60;3.90;;;;;;;18.09;45.55;98751.41;5084419;28;20440;-73
2021/11/02 09:22:12;;;;;;;5.93;3.80;;;;;;;17.31;46.91;98748.22;5081688;28;20504;-73
2021/11/02 09:24:43;;;;;;;9.53;3.23;;;;;;;16.30;48.29;98749.06;5083924;28;20471;-72
2021/11/02 09:27:10;;;;;;;3.93;3.20;;;;;;;17.27;46.28;98740.78;5082882;28;20484;-73
2021/11/02 09:29:36;;;;;;;3.30;3.00;;;;;;;17.88;45.37;98750.00;5082949;28;20434;-72
2021/11/02 09:32:06;;;;;;;4.93;3.30;;;;;;;17.84;44.75;98752.28;5082161;28;20472;-73
2021/11/02 09:34:33;;;;;;;5.20;3.60;;;;;;;19.42;42.03;98753.28;5083498;28;20943;-73
2021/11/02 09:37:05;;;;;;;7.70;4.00;;;;;;;17.32;46.45;98754.44;5081773;28;20510;-74
2021/11/02 09:39:38;;;;;;;3.90;3.47;;;;;;;15.03;51.45;98749.31;5083274;28;20432;-73
2021/11/02 09:42:17;;;;;;;6.30;3.70;;;;;;;12.99;57.49;98758.66;5082045;28;20493;-73
2021/11/02 09:45:17;;;;;;;4.20;3.70;;;;;;;13.10;58.55;98750.06;5082964;28;20480;-72
2021/11/02 09:48:23;;;;;;;7.07;4.00;;;;;;;12.51;59.94;98761.06;5049221;28;20463;-73
2021/11/02 09:51:15;;;;;;;5.30;3.80;;;;;;;12.97;58.91;98752.66;5079005;28;20489;-71
2021/11/02 09:54:13;;;;;;;7.43;4.60;;;;;;;13.46;58.16;98767.91;5083698;28;20972;-73
2021/11/02 09:56:54;;;;;;;7.87;4.47;;;;;;;13.23;57.56;98762.78;5082710;28;20738;-73
2021/11/02 09:59:57;;;;;;;4.47;3.80;;;;;;;13.15;59.37;98754.84;5082275;28;20458;-72
2021/11/02 10:06:09;;;;;;;6.30;5.10;;;;;;;12.73;60.49;98760.06;5112644;27;20557;-72
2021/11/02 10:08:44;;;;;;;5.40;4.63;;;;;;;13.35;58.53;98755.88;5099410;28;20526;-74
2021/11/02 10:11:23;;;;;;;6.50;5.73;;;;;;;14.09;56.53;98754.44;5098230;28;21029;-72
2021/11/02 10:14:03;;;;;;;6.60;5.43;;;;;;;15.55;52.61;98747.63;5098201;28;20856;-73
2021/11/02 10:16:44;;;;;;;8.73;5.07;;;;;;;16.63;49.34;98750.78;5097711;28;20463;-73
2021/11/02 10:19:37;;;;;;;8.10;4.90;;;;;;;18.02;45.78;98747.97;5098147;28;20432;-74
2021/11/02 10:22:29;;;;;;;5.43;4.37;;;;;;;17.22;46.95;98744.16;5096415;28;20475;-73
2021/11/02 10:25:10;;;;;;;6.13;4.20;;;;;;;16.55;48.51;98747.28;5099065;28;20487;-74
2021/11/02 10:27:55;;;;;;;6.40;4.13;;;;;;;15.37;52.12;98742.06;5099283;28;20439;-74
2021/11/02 10:30:37;;;;;;;7.23;4.43;;;;;;;14.22;54.51;98742.91;5098580;28;20445;-72
2021/11/02 10:33:09;;;;;;;7.07;4.43;;;;;;;14.67;53.92;98735.22;5098500;28;20440;-73
2021/11/02 10:35:55;;;;;;;9.80;3.73;;;;;;;13.75;56.38;98744.56;5097681;28;20466;-73
2021/11/02 10:38:27;;;;;;;5.83;3.43;;;;;;;14.96;52.52;98741.22;5099107;28;20503;-73
2021/11/02 10:41:18;;;;;;;3.63;2.93;;;;;;;15.38;51.79;98732.94;5098509;28;20501;-73
2021/11/02 10:44:00;;;;;;;5.60;3.57;;;;;;;15.58;50.68;98733.72;5096830;28;20451;-73
2021/11/02 10:46:31;;;;;;;5.77;3.53;;;;;;;15.99;49.11;98729.94;5097603;28;20561;-73
2021/11/02 10:48:59;;;;;;;4.07;3.60;;;;;;;15.95;49.85;98733.25;5098853;28;20487;-73
2021/11/02 10:51:39;;;;;;;4.70;3.27;;;;;;;15.33;51.36;98727.34;5097092;28;20519;-72
2021/11/02 10:54:28;;;;;;;4.43;3.73;;;;;;;14.66;53.72;98728.16;5098148;28;20448;-73
2021/11/02 10:57:20;;;;;;;7.93;4.37;;;;;;;13.07;57.66;98728.16;5097423;28;20474;-72
2021/11/02 10:59:47;;;;;;;8.80;5.13;;;;;;;12.74;59.34;98732.22;5098355;28;20470;-73
2021/11/02 11:02:23;;;;;;;6.50;4.47;;;;;;;12.65;59.89;98728.00;5097036;28;20501;-73
2021/11/02 11:04:51;;;;;;;6.20;5.27;;;;;;;12.49;59.92;98720.22;5097155;28;20506;-73
2021/11/02 11:07:18;;;;;;;5.90;5.03;;;;;;;12.60;60.02;98720.53;5097301;28;20467;-73
2021/11/02 11:09:47;;;;;;;7.43;5.20;;;;;;;12.87;59.20;98719.94;5098255;28;20823;-73
2021/11/02 11:12:15;;;;;;;7.67;5.03;;;;;;;13.77;56.44;98722.88;5095931;28;20475;-73
2021/11/02 11:14:46;;;;;;;6.77;4.70;;;;;;;14.35;55.71;98714.41;5098063;28;20477;-73
2021/11/02 11:17:16;;;;;;;9.13;5.27;;;;;;;13.75;55.89;98723.06;5083143;28;20471;-73
2021/11/02 11:19:50;;;;;;;9.50;4.90;;;;;;;14.45;53.76;98717.53;5084417;28;20801;-73
2021/11/02 11:22:23;;;;;;;6.50;4.40;;;;;;;14.64;53.88;98722.16;5083804;28;20463;-72
2021/11/02 11:24:57;;;;;;;5.00;4.37;;;;;;;15.16;53.16;98714.31;5085100;28;20483;-73
2021/11/02 11:27:27;;;;;;;10.23;5.23;;;;;;;13.70;55.13;98714.78;5083206;28;20499;-73
2021/11/02 11:30:05;;;;;;;9.00;4.10;;;;;;;13.64;56.55;98713.69;5084237;28;20448;-73
2021/11/02 11:32:34;;;;;;;7.57;4.63;;;;;;;13.62;56.39;98712.25;5063052;28;20457;-73
2021/11/02 11:35:03;;;;;;;5.70;4.30;;;;;;;13.91;57.03;98713.84;5062912;28;20460;-72
2021/11/02 11:37:37;;;;;;;6.43;4.37;;;;;;;13.46;56.32;98710.72;5063591;28;20668;-73
2021/11/02 11:40:08;;;;;;;6.50;4.23;;;;;;;14.03;55.37;98714.13;5064216;28;20520;-73
2021/11/02 11:42:35;;;;;;;6.27;4.80;;;;;;;13.93;56.28;98714.47;5062313;28;20472;-73
2021/11/02 11:45:07;;;;;;;9.67;3.97;;;;;;;13.90;55.47;98710.31;5063962;28;20492;-73
2021/11/02 11:47:34;;;;;;;5.93;4.00;;;;;;;14.08;55.23;98715.16;5062791;28;20484;-73
2021/11/02 11:50:13;;;;;;;6.10;4.73;;;;;;;13.94;55.67;98714.28;5063339;28;20437;-72
2021/11/02 11:52:45;;;;;;;4.60;4.00;;;;;;;14.48;54.30;98715.28;5062955;28;20791;-73
2021/11/02 11:55:14;;;;;;;7.97;6.00;;;;;;;13.18;55.71;98720.41;5062597;28;20445;-71
2021/11/02 11:57:41;;;;;;;9.63;5.90;;;;;;;13.59;56.03;98718.00;5062506;28;20935;-72
2021/11/02 12:00:09;;;;;;;7.33;5.80;;;;;;;14.28;54.67;98715.22;5063862;28;20429;-72
2021/11/02 12:02:43;;;;;;;9.70;6.23;;;;;;;14.87;53.15;98720.94;5063433;28;20457;-73
2021/11/02 12:05:17;;;;;;;6.60;5.30;;;;;;;15.09;52.02;98713.50;5061680;28;20527;-73
2021/11/02 12:07:54;;;;;;;10.33;5.53;;;;;;;14.27;54.02;98708.19;5063359;28;20933;-72
2021/11/02 12:10:23;;;;;;;6.07;4.63;;;;;;;15.11;51.90;98714.13;5062775;28;20467;-72
2021/11/02 12:12:50;;;;;;;7.93;4.73;;;;;;;14.93;51.25;98703.13;5062028;28;20480;-72
2021/11/02 12:15:17;;;;;;;5.90;4.60;;;;;;;15.40;51.14;98710.16;5062391;28;20965;-73
2021/11/02 12:17:46;;;;;;;4.93;3.93;;;;;;;15.61;49.81;98701.00;5062758;28;20453;-73
2021/11/02 12:20:15;;;;;;;6.10;4.33;;;;;;;15.21;50.89;98705.63;5062413;28;20496;-72
2021/11/02 12:22:47;;;;;;;4.13;3.40;;;;;;;14.84;51.51;98705.19;5063439;28;20907;-73
2021/11/02 12:25:22;;;;;;;4.93;3.63;;;;;;;14.54;52.45;98692.09;5062215;28;20488;-75
2021/11/02 12:27:51;;;;;;;4.90;4.10;;;;;;;14.34;53.64;98699.31;5060947;28;20459;-73
2021/11/02 12:30:20;;;;;;;5.67;4.67;;;;;;;14.89;53.82;98700.03;5062549;28;20456;-73
2021/11/02 12:32:52;;;;;;;5.87;4.00;;;;;;;15.03;52.39;98698.16;5062589;28;20472;-72
2021/11/02 12:35:29;;;;;;;3.63;3.30;;;;;;;14.48;53.77;98703.69;5061431;28;20480;-74
2021/11/02 12:37:57;;;;;;;4.13;3.10;;;;;;;13.91;54.47;98697.72;5060174;28;20453;-73
2021/11/02 12:40:27;;;;;;;7.90;3.40;;;;;;;14.29;53.84;98692.69;5062970;28;20452;-74
2021/11/02 12:42:55;;;;;;;4.03;2.80;;;;;;;14.40;53.88;98691.25;5062308;28;20487;-72
2021/11/02 12:45:24;;;;;;;4.70;2.93;;;;;;;14.68;53.14;98695.69;5062076;28;20524;-72
2021/11/02 12:47:51;;;;;;;4.33;2.53;;;;;;;14.48;53.37;98696.44;5061905;28;20453;-73
2021/11/02 12:50:21;;;;;;;3.77;2.43;;;;;;;13.71;54.92;98700.31;5061499;28;20453;-72
2021/11/02 12:52:48;;;;;;;7.30;2.77;;;;;;;13.91;55.19;98698.56;5062415;28;20503;-71
2021/11/02 12:55:19;;;;;;;3.90;2.60;;;;;;;13.75;54.93;98696.22;5061419;28;20863;-72
2021/11/02 12:57:47;;;;;;;4.77;3.00;;;;;;;13.76;55.15;98697.88;5061850;28;20832;-72
2021/11/02 13:00:17;;;;;;;4.40;2.40;;;;;;;13.88;54.48;98700.81;5061886;28;20452;-71
2021/11/02 13:02:47;;;;;;;7.67;2.50;;;;;;;13.80;54.77;98693.75;5062000;28;20483;-71
2021/11/02 13:05:18;;;;;;;5.37;2.30;;;;;;;13.82;54.55;98693.53;5059564;28;20504;-71
2021/11/02 13:07:52;;;;;;;7.20;2.93;;;;;;;13.94;54.65;98689.28;5062166;28;20434;-72
2021/11/02 13:10:20;;;;;;;2.83;2.37;;;;;;;14.38;53.53;98692.50;5061395;28;20516;-72
2021/11/02 13:12:50;;;;;;;3.93;2.50;;;;;;;13.99;54.37;98696.72;5060896;28;20441;-72
2021/11/02 13:15:18;;;;;;;2.90;2.23;;;;;;;13.84;55.24;98696.88;5061596;28;20487;-72
2021/11/02 13:17:50;;;;;;;8.47;3.30;;;;;;;13.72;55.35;98693.94;5061856;28;20445;-71
2021/11/02 13:20:30;;;;;;;3.63;2.43;;;;;;;13.51;56.12;98693.00;5061757;28;20437;-71
2021/11/02 13:22:57;;;;;;;7.80;3.20;;;;;;;13.35;56.25;98693.31;5062100;28;20468;-72
2021/11/02 13:25:35;;;;;;;13.73;3.03;;;;;;;13.71;56.18;98695.78;5061333;28;20503;-73
2021/11/02 13:28:02;;;;;;;4.40;2.50;;;;;;;13.77;55.28;98702.22;5062591;28;20436;-72
2021/11/02 13:30:33;;;;;;;3.10;2.90;;;;;;;13.66;55.88;98692.03;5061908;28;20477;-72
2021/11/02 13:33:02;;;;;;;3.27;2.97;;;;;;;13.02;57.35;98706.44;5060376;28;20459;-72
2021/11/02 13:35:55;;;;;;;5.60;2.63;;;;;;;13.10;57.52;98703.63;5060888;28;20488;-72
2021/11/02 13:38:33;;;;;;;4.53;2.60;;;;;;;13.42;56.61;98694.19;5046703;28;20457;-72
2021/11/02 13:41:09;;;;;;;4.83;2.50;;;;;;;13.53;56.33;98696.28;5060388;28;20870;-71
2021/11/02 13:43:38;;;;;;;7.50;2.87;;;;;;;13.26;57.75;98705.19;5061740;28;20469;-72
2021/11/02 13:46:07;;;;;;;8.73;2.77;;;;;;;13.06;57.47;98697.00;5060698;28;20487;-72
2021/11/02 13:48:34;;;;;;;5.43;2.67;;;;;;;13.11;57.33;98700.75;5060771;28;20463;-72
2021/11/02 13:51:02;;;;;;;5.77;2.70;;;;;;;13.22;57.60;98707.44;5061613;28;20539;-72
2021/11/02 13:53:33;;;;;;;4.03;2.90;;;;;;;13.40;57.12;98698.91;5062044;28;20452;-72
2021/11/02 13:56:01;;;;;;;7.33;3.20;;;;;;;13.26;57.25;98697.97;5060346;28;20473;-72
2021/11/02 13:58:27;;;;;;;3.57;2.97;;;;;;;13.28;56.59;98697.75;5061636;28;20440;-72
2021/11/02 14:00:54;;;;;;;4.17;2.60;;;;;;;13.25;57.19;98703.53;5061547;28;20475;-72
2021/11/02 14:03:26;;;;;;;3.10;2.57;;;;;;;13.47;56.54;98694.41;5060617;28;20453;-72
2021/11/02 14:05:53;;;;;;;4.93;2.60;;;;;;;13.69;56.54;98697.81;5061201;28;21021;-72
2021/11/02 14:08:20;;;;;;;7.97;3.20;;;;;;;13.37;56.30;98699.31;5061625;28;20753;-73
2021/11/02 14:10:57;;;;;;;2.80;2.50;;;;;;;13.40;56.43;98696.22;5059849;28;20496;-72
2021/11/02 14:13:44;;;;;;;4.27;2.63;;;;;;;13.07;57.51;98698.63;5056599;28;20446;-73
2021/11/02 14:16:12;;;;;;;4.23;2.37;;;;;;;13.07;57.79;98699.50;5050870;28;20464;-73
2021/11/02 14:18:41;;;;;;;4.40;3.00;;;;;;;12.91;58.65;98689.84;5054581;28;20446;-73
2021/11/02 14:21:09;;;;;;;4.23;2.60;;;;;;;12.72;58.97;98694.03;5066782;28;20511;-73
2021/11/02 14:23:39;;;;;;;4.80;2.30;;;;;;;13.01;58.43;98705.63;5081509;28;20463;-72
2021/11/02 14:26:22;;;;;;;3.67;2.23;;;;;;;13.08;57.71;98700.31;5079174;28;20479;-72
2021/11/02 14:28:50;;;;;;;3.83;2.30;;;;;;;13.17;58.54;98704.50;5081661;28;20440;-72
2021/11/02 14:31:49;;;;;;;5.33;2.77;;;;;;;12.98;58.88;98695.28;5079614;28;20509;-73
2021/11/02 14:34:48;;;;;;;9.00;2.80;;;;;;;13.13;58.07;98696.00;5080196;28;20466;-73
2021/11/02 14:37:23;;;;;;;3.60;2.10;;;;;;;12.32;59.87;98700.84;5080461;28;20440;-72
2021/11/02 14:39:57;;;;;;;5.17;2.10;;;;;;;12.71;58.69;98703.09;5081165;28;20489;-73
2021/11/02 14:42:44;;;;;;;6.90;2.40;;;;;;;12.69;59.01;98702.47;5078979;28;20471;-73
2021/11/02 14:45:12;;;;;;;6.33;1.90;;;;;;;12.48;59.33;98702.47;5080128;28;20483;-73
2021/11/02 14:47:40;;;;;;;6.47;2.07;;;;;;;12.42;59.54;98707.56;5078986;28;20768;-73
2021/11/02 14:50:33;;;;;;;6.63;2.43;;;;;;;12.57;59.78;98702.16;5079076;28;20807;-73
2021/11/02 14:53:11;;;;;;;5.43;2.00;;;;;;;12.49;59.67;98701.44;5084009;28;20473;-73
2021/11/02 14:55:58;;;;;;;7.70;2.00;;;;;;;12.67;59.26;98703.66;5083052;28;20474;-73
2021/11/02 14:58:47;;;;;;;4.30;1.73;;;;;;;12.37;59.82;98703.78;5068798;28;20466;-73
2021/11/02 15:01:16;;;;;;;3.33;1.80;;;;;;;12.76;58.96;98700.69;5083815;28;20467;-73
2021/11/02 15:03:50;;;;;;;5.63;1.90;;;;;;;12.74;59.13;98705.41;5083891;28;20480;-72
2021/11/02 15:06:19;;;;;;;7.10;2.00;;;;;;;12.86;59.04;98700.31;5075325;28;20567;-73
2021/11/02 15:08:47;;;;;;;3.90;1.53;;;;;;;12.82;59.56;98710.63;5064687;28;20497;-73
2021/11/02 15:11:16;;;;;;;4.87;1.53;;;;;;;12.63;59.00;98704.06;5072319;28;21059;-73
2021/11/02 15:13:48;;;;;;;2.77;1.60;;;;;;;12.02;59.73;98701.75;5081919;28;20466;-73
2021/11/02 15:16:15;;;;;;;4.33;1.70;;;;;;;12.37;60.43;98707.31;5079478;28;20468;-73
2021/11/02 15:18:43;;;;;;;5.03;1.70;;;;;;;12.24;59.46;98702.63;5083970;28;20480;-73
2021/11/02 15:21:11;;;;;;;4.00;2.20;;;;;;;12.21;59.29;98700.34;5084616;28;20474;-73
2021/11/02 15:23:43;;;;;;;3.53;1.50;;;;;;;12.11;59.19;98701.66;5077970;28;20488;-74
2021/11/02 15:26:10;;;;;;;6.47;1.90;;;;;;;12.22;59.04;98704.69;5063136;28;20496;-74
2021/11/02 15:28:42;;;;;;;2.33;1.60;;;;;;;12.35;59.24;98703.97;5075579;28;20476;-72
2021/11/02 15:31:08;;;;;;;4.13;1.60;;;;;;;12.16;59.00;98702.75;5083210;28;20470;-73
2021/11/02 15:33:37;;;;;;;6.57;1.50;;;;;;;11.76;59.49;98704.09;5083618;28;20999;-73
2021/11/02 15:36:18;;;;;;;3.03;1.40;;;;;;;11.77;60.72;98700.38;5081827;28;20511;-73
2021/11/02 15:39:00;;;;;;;9.30;1.90;;;;;;;11.60;59.35;98703.28;5078822;28;20908;-73
2021/11/02 15:41:27;;;;;;;3.37;2.40;;;;;;;11.59;59.97;98695.41;5083446;28;20503;-73
2021/11/02 15:43:55;;;;;;;3.20;1.50;;;;;;;11.57;60.00;98702.81;5083591;28;20663;-73
2021/11/02 15:46:33;;;;;;;4.93;1.63;;;;;;;11.72;59.82;98698.28;5081168;28;20522;-73
2021/11/02 15:49:02;;;;;;;3.73;2.63;;;;;;;11.74;59.78;98706.13;5083642;28;20440;-74
2021/11/02 15:51:31;;;;;;;7.00;1.53;;;;;;;11.53;59.96;98702.34;5083105;28;20499;-74
2021/11/02 15:54:00;;;;;;;5.53;2.90;;;;;;;11.40;60.71;98696.81;5082570;28;20448;-73
2021/11/02 15:56:28;;;;;;;8.97;2.50;;;;;;;11.37;61.20;98698.03;5082923;28;20487;-73
2021/11/02 15:59:01;;;;;;;8.60;1.90;;;;;;;11.17;61.36;98705.72;5083762;28;20436;-73
2021/11/02 16:01:34;;;;;;;3.83;1.27;;;;;;;11.09;61.85;98695.97;5081478;28;20552;-73
2021/11/02 16:04:16;;;;;;;4.20;1.70;;;;;;;11.10;61.63;98699.47;5083288;28;20488;-73
2021/11/02 16:07:05;;;;;;;6.77;1.90;;;;;;;11.07;62.20;98705.16;5082678;28;20488;-73
2021/11/02 16:09:49;;;;;;;3.03;1.53;;;;;;;10.98;62.47;98696.38;5082442;28;20486;-73
2021/11/02 16:12:17;;;;;;;4.50;1.53;;;;;;;10.85;62.91;98698.84;5080550;28;20820;-74
2021/11/02 16:14:57;;;;;;;5.43;1.80;;;;;;;10.97;62.50;98707.25;5082497;28;20440;-73
2021/11/02 16:17:25;;;;;;;4.20;1.67;;;;;;;10.85;63.03;98701.50;5082334;28;20444;-73